createdAt,value
2017-09-17T00:00:39.919Z,6.80
2017-09-17T00:03:07.391Z,6.80
2017-09-17T00:05:35.684Z,6.70
2017-09-17T00:08:03.920Z,6.80
2017-09-17T00:10:31.395Z,6.70
2017-09-17T00:12:58.854Z,6.70
2017-09-17T00:15:26.368Z,6.60
2017-09-17T00:17:53.835Z,6.40
2017-09-17T00:20:21.966Z,6.00
2017-09-17T00:22:50.203Z,5.90
2017-09-17T00:25:17.695Z,5.90
2017-09-17T00:27:45.943Z,6.40
2017-09-17T00:30:13.408Z,6.40
2017-09-17T00:32:40.899Z,6.30
2017-09-17T00:35:09.141Z,6.30
2017-09-17T00:37:37.382Z,6.40
2017-09-17T00:40:04.854Z,6.40
2017-09-17T00:42:32.331Z,6.40
2017-09-17T00:44:59.786Z,6.40
2017-09-17T00:47:27.279Z,6.50
2017-09-17T00:49:55.531Z,6.50
2017-09-17T00:52:23.008Z,6.50
2017-09-17T00:54:51.263Z,6.60
2017-09-17T00:57:18.729Z,6.60
2017-09-17T00:59:46.959Z,6.50
2017-09-17T01:02:14.432Z,6.50
2017-09-17T01:04:41.907Z,6.30
2017-09-17T01:07:09.399Z,6.40
2017-09-17T01:09:37.620Z,6.00
2017-09-17T01:12:05.131Z,6.00
2017-09-17T01:14:33.369Z,6.20
2017-09-17T01:17:00.832Z,6.20
2017-09-17T01:19:28.307Z,6.30
2017-09-17T01:21:55.766Z,6.40
2017-09-17T01:24:23.254Z,6.10
2017-09-17T01:26:50.728Z,5.80
2017-09-17T01:29:18.286Z,5.70
2017-09-17T01:31:45.774Z,5.60
2017-09-17T01:34:13.255Z,5.70
2017-09-17T01:36:40.720Z,5.70
2017-09-17T01:39:08.999Z,5.90
2017-09-17T01:41:37.271Z,6.10
2017-09-17T01:44:04.736Z,6.10
2017-09-17T01:46:33.003Z,6.40
2017-09-17T01:49:00.466Z,6.30
2017-09-17T01:51:28.715Z,6.40
2017-09-17T01:53:56.170Z,6.40
2017-09-17T01:56:23.688Z,6.50
2017-09-17T01:58:51.148Z,6.50
2017-09-17T02:01:18.618Z,6.50
2017-09-17T02:03:46.106Z,6.50
2017-09-17T02:06:13.581Z,6.50
2017-09-17T02:08:41.066Z,6.40
2017-09-17T02:11:09.307Z,5.90
2017-09-17T02:13:36.771Z,5.90
2017-09-17T02:16:04.251Z,5.80
2017-09-17T02:18:32.510Z,5.90
2017-09-17T02:20:59.999Z,5.90
2017-09-17T02:23:28.216Z,6.30
2017-09-17T02:25:55.704Z,6.30
2017-09-17T02:28:23.967Z,6.30
2017-09-17T02:30:51.462Z,6.30
2017-09-17T02:33:19.692Z,6.40
2017-09-17T02:35:47.173Z,6.40
2017-09-17T02:38:14.642Z,6.40
2017-09-17T02:40:42.911Z,6.30
2017-09-17T02:43:11.126Z,6.30
2017-09-17T02:45:38.624Z,6.30
2017-09-17T02:48:06.079Z,6.00
2017-09-17T02:50:33.567Z,5.80
2017-09-17T02:53:01.036Z,5.90
2017-09-17T02:55:29.316Z,6.10
2017-09-17T02:57:57.544Z,6.10
2017-09-17T03:00:25.085Z,6.10
2017-09-17T03:02:52.566Z,6.20
2017-09-17T03:05:20.030Z,6.10
2017-09-17T03:07:47.543Z,6.10
2017-09-17T03:10:15.029Z,6.10
2017-09-17T03:12:42.478Z,6.10
2017-09-17T03:15:09.971Z,6.10
2017-09-17T03:17:37.431Z,5.90
2017-09-17T03:20:04.931Z,5.70
2017-09-17T03:22:33.160Z,5.90
2017-09-17T03:25:00.623Z,5.90
2017-09-17T03:27:28.140Z,5.90
2017-09-17T03:29:55.604Z,5.90
2017-09-17T03:32:23.082Z,5.80
2017-09-17T03:34:50.539Z,5.70
2017-09-17T03:37:18.040Z,5.70
2017-09-17T03:39:46.292Z,5.70
2017-09-17T03:42:13.763Z,5.70
2017-09-17T03:44:41.248Z,5.70
2017-09-17T03:47:09.471Z,5.80
2017-09-17T03:49:36.942Z,5.80
2017-09-17T03:52:04.438Z,5.90
2017-09-17T03:54:32.715Z,5.80
2017-09-17T03:57:00.946Z,5.80
2017-09-17T03:59:28.407Z,5.80
2017-09-17T04:01:55.896Z,5.80
2017-09-17T04:04:24.159Z,5.80
2017-09-17T04:06:51.648Z,5.80
2017-09-17T04:09:19.123Z,5.80
2017-09-17T04:11:46.619Z,5.90
2017-09-17T04:14:14.089Z,5.90
2017-09-17T04:16:41.571Z,5.90
2017-09-17T04:19:09.786Z,6.00
2017-09-17T04:21:37.286Z,6.00
2017-09-17T04:24:04.751Z,5.90
2017-09-17T04:26:32.976Z,5.90
2017-09-17T04:29:00.479Z,5.90
2017-09-17T04:31:27.939Z,5.90
2017-09-17T04:33:55.426Z,6.00
2017-09-17T04:36:22.950Z,6.00
2017-09-17T04:38:50.403Z,6.00
2017-09-17T04:41:17.885Z,6.00
2017-09-17T04:43:46.119Z,5.90
2017-09-17T04:46:13.599Z,5.90
2017-09-17T04:48:41.087Z,5.90
2017-09-17T04:51:09.336Z,5.90
2017-09-17T04:53:36.822Z,5.80
2017-09-17T04:56:05.062Z,5.80
2017-09-17T04:58:32.560Z,5.80
2017-09-17T05:01:00.779Z,5.80
2017-09-17T05:03:28.261Z,5.70
2017-09-17T05:05:55.736Z,5.80
2017-09-17T05:08:23.954Z,5.80
2017-09-17T05:10:51.452Z,5.80
2017-09-17T05:13:18.908Z,5.70
2017-09-17T05:15:46.406Z,5.60
2017-09-17T05:18:13.888Z,5.60
2017-09-17T05:20:41.381Z,5.60
2017-09-17T05:23:08.877Z,5.50
2017-09-17T05:25:37.100Z,5.50
2017-09-17T05:28:04.639Z,5.50
2017-09-17T05:30:32.083Z,5.50
2017-09-17T05:32:59.619Z,5.50
2017-09-17T05:35:27.879Z,5.50
2017-09-17T05:37:55.420Z,5.40
2017-09-17T05:40:22.884Z,5.40
2017-09-17T05:42:50.361Z,5.50
2017-09-17T05:45:17.847Z,5.10
2017-09-17T05:47:46.111Z,5.10
2017-09-17T05:50:14.344Z,5.10
2017-09-17T05:52:41.853Z,5.00
2017-09-17T05:55:10.080Z,5.10
2017-09-17T05:57:37.534Z,5.10
2017-09-17T06:00:05.058Z,5.30
2017-09-17T06:02:32.506Z,5.50
2017-09-17T06:05:00.009Z,5.50
2017-09-17T06:07:27.468Z,5.40
2017-09-17T06:09:54.938Z,5.30
2017-09-17T06:12:22.427Z,5.40
2017-09-17T06:14:50.652Z,5.60
2017-09-17T06:17:18.140Z,5.60
2017-09-17T06:19:45.627Z,5.70
2017-09-17T06:22:13.903Z,5.80
2017-09-17T06:24:42.132Z,5.80
2017-09-17T06:27:09.590Z,5.80
2017-09-17T06:29:37.112Z,5.80
2017-09-17T06:32:04.583Z,5.90
2017-09-17T06:34:32.036Z,5.90
2017-09-17T06:36:59.518Z,5.90
2017-09-17T06:39:27.028Z,5.90
2017-09-17T06:41:55.294Z,6.10
2017-09-17T06:44:22.798Z,6.00
2017-09-17T06:46:50.330Z,6.10
2017-09-17T06:49:18.543Z,6.30
2017-09-17T06:51:46.059Z,6.30
2017-09-17T06:54:14.368Z,6.50
2017-09-17T06:56:41.812Z,6.40
2017-09-17T06:59:09.387Z,7.20
2017-09-17T07:01:36.840Z,7.30
2017-09-17T07:04:04.367Z,7.50
2017-09-17T07:06:32.588Z,8.00
2017-09-17T07:09:00.062Z,8.00
2017-09-17T07:11:27.548Z,8.20
2017-09-17T07:13:55.022Z,8.60
2017-09-17T07:16:23.291Z,8.50
2017-09-17T07:18:51.554Z,8.50
2017-09-17T07:21:19.028Z,8.60
2017-09-17T07:23:47.289Z,8.90
2017-09-17T07:26:14.779Z,8.90
2017-09-17T07:28:42.248Z,8.90
2017-09-17T07:31:09.739Z,9.10
2017-09-17T07:33:37.261Z,9.60
2017-09-17T07:36:04.734Z,9.70
2017-09-17T07:38:32.230Z,9.60
2017-09-17T07:40:59.719Z,9.70
2017-09-17T07:43:27.991Z,9.80
2017-09-17T07:45:56.247Z,9.90
2017-09-17T07:48:23.719Z,9.90
2017-09-17T07:50:51.974Z,10.00
2017-09-17T07:53:19.483Z,10.00
2017-09-17T07:55:47.000Z,10.30
2017-09-17T07:58:14.487Z,10.60
2017-09-17T08:00:42.751Z,11.00
2017-09-17T08:03:10.251Z,11.00
2017-09-17T08:05:37.769Z,10.80
2017-09-17T08:08:05.232Z,10.80
2017-09-17T08:10:33.500Z,11.00
2017-09-17T08:13:00.991Z,11.00
2017-09-17T08:15:28.467Z,10.70
2017-09-17T08:17:55.956Z,11.00
2017-09-17T08:20:23.479Z,11.40
2017-09-17T08:22:50.953Z,11.70
2017-09-17T08:25:18.448Z,11.30
2017-09-17T08:27:45.950Z,11.60
2017-09-17T08:30:13.456Z,11.50
2017-09-17T08:32:40.959Z,11.50
2017-09-17T08:35:08.436Z,11.30
2017-09-17T08:37:35.948Z,11.50
2017-09-17T08:40:03.420Z,11.20
2017-09-17T08:42:31.693Z,11.40
2017-09-17T08:44:59.932Z,11.80
2017-09-17T08:47:27.473Z,11.70
2017-09-17T08:49:54.956Z,11.90
2017-09-17T08:52:22.435Z,11.50
2017-09-17T08:54:50.716Z,12.10
2017-09-17T08:57:18.195Z,12.10
2017-09-17T08:59:45.695Z,12.40
2017-09-17T09:02:13.160Z,12.20
2017-09-17T09:04:40.640Z,12.70
2017-09-17T09:07:08.123Z,12.70
2017-09-17T09:09:36.359Z,12.40
2017-09-17T09:12:03.867Z,12.40
2017-09-17T09:14:31.347Z,12.70
2017-09-17T09:16:58.866Z,12.80
2017-09-17T09:19:27.128Z,13.00
2017-09-17T09:21:54.618Z,12.90
2017-09-17T09:24:22.867Z,13.30
2017-09-17T09:26:50.361Z,13.30
2017-09-17T09:29:17.842Z,13.40
2017-09-17T09:31:45.338Z,13.40
2017-09-17T09:34:12.831Z,13.70
2017-09-17T09:36:40.311Z,13.70
2017-09-17T09:39:08.326Z,13.50
2017-09-17T09:41:35.831Z,12.80
2017-09-17T09:44:03.299Z,12.60
2017-09-17T09:46:30.788Z,12.90
2017-09-17T09:48:58.274Z,12.70
2017-09-17T09:51:26.561Z,13.60
2017-09-17T09:53:54.782Z,13.40
2017-09-17T09:56:23.209Z,13.30
2017-09-17T09:58:51.471Z,14.00
2017-09-17T10:01:18.988Z,14.00
2017-09-17T10:03:46.481Z,14.10
2017-09-17T10:06:13.961Z,13.80
2017-09-17T10:08:42.211Z,13.50
2017-09-17T10:11:12.024Z,13.40
2017-09-17T10:13:39.573Z,13.40
2017-09-17T10:16:07.036Z,13.80
2017-09-17T10:18:34.510Z,14.20
2017-09-17T10:21:02.024Z,13.80
2017-09-17T10:23:29.504Z,13.50
2017-09-17T10:25:57.003Z,13.60
2017-09-17T10:28:25.251Z,13.30
2017-09-17T10:30:52.747Z,13.30
2017-09-17T10:33:21.001Z,13.00
2017-09-17T10:35:48.478Z,13.00
2017-09-17T10:38:16.750Z,12.70
2017-09-17T10:40:44.247Z,12.70
2017-09-17T10:43:11.731Z,12.90
2017-09-17T10:45:39.195Z,13.00
2017-09-17T10:48:06.729Z,13.70
2017-09-17T10:50:34.232Z,13.80
2017-09-17T10:53:01.736Z,13.50
2017-09-17T10:55:29.254Z,13.60
2017-09-17T10:57:56.758Z,13.50
2017-09-17T11:00:24.266Z,14.00
2017-09-17T11:02:51.740Z,13.90
2017-09-17T11:05:20.025Z,14.10
2017-09-17T11:07:48.319Z,14.50
2017-09-17T11:10:15.831Z,14.50
2017-09-17T11:12:43.302Z,14.10
2017-09-17T11:15:11.575Z,13.90
2017-09-17T11:17:39.107Z,13.90
2017-09-17T11:20:06.628Z,13.50
2017-09-17T11:22:34.929Z,13.90
2017-09-17T11:25:02.460Z,13.90
2017-09-17T11:27:31.334Z,13.80
2017-09-17T11:29:59.614Z,13.90
2017-09-17T11:32:27.847Z,14.40
2017-09-17T11:34:55.363Z,14.40
2017-09-17T11:37:22.926Z,14.50
2017-09-17T11:39:51.246Z,14.20
2017-09-17T11:42:18.746Z,14.50
2017-09-17T11:44:46.987Z,14.30
2017-09-17T11:47:14.528Z,14.30
2017-09-17T11:49:42.011Z,14.40
2017-09-17T11:52:10.232Z,14.70
2017-09-17T11:54:37.745Z,14.80
2017-09-17T11:57:05.218Z,14.40
2017-09-17T11:59:32.724Z,14.60
2017-09-17T12:02:00.237Z,14.90
2017-09-17T12:04:27.728Z,14.80
2017-09-17T12:06:55.219Z,14.30
2017-09-17T12:09:22.708Z,14.40
2017-09-17T12:11:50.208Z,14.30
2017-09-17T12:14:17.675Z,14.50
2017-09-17T12:16:45.175Z,14.40
2017-09-17T12:19:12.670Z,14.40
2017-09-17T12:21:41.018Z,14.30
2017-09-17T12:24:08.487Z,14.30
2017-09-17T12:26:35.998Z,14.10
2017-09-17T12:29:03.494Z,14.40
2017-09-17T12:31:31.006Z,14.40
2017-09-17T12:33:58.492Z,14.70
2017-09-17T12:36:25.960Z,14.80
2017-09-17T12:38:53.479Z,14.90
2017-09-17T12:41:20.953Z,14.90
2017-09-17T12:43:48.458Z,15.00
2017-09-17T12:46:16.751Z,14.80
2017-09-17T12:48:45.008Z,14.60
2017-09-17T12:51:12.478Z,14.50
2017-09-17T12:53:40.735Z,14.80
2017-09-17T12:56:08.272Z,14.90
2017-09-17T12:58:35.775Z,14.60
2017-09-17T13:01:04.108Z,14.90
2017-09-17T13:03:31.619Z,14.90
2017-09-17T13:05:59.871Z,14.50
2017-09-17T13:08:28.910Z,14.40
2017-09-17T13:10:56.383Z,14.40
2017-09-17T13:13:23.882Z,14.90
2017-09-17T13:15:52.170Z,15.10
2017-09-17T13:18:21.181Z,14.60
2017-09-17T13:20:49.441Z,14.30
2017-09-17T13:23:16.943Z,14.30
2017-09-17T13:25:45.047Z,14.20
2017-09-17T13:28:12.546Z,14.30
2017-09-17T13:30:40.799Z,15.20
2017-09-17T13:33:08.292Z,15.10
2017-09-17T13:35:36.544Z,14.70
2017-09-17T13:38:04.775Z,14.40
2017-09-17T13:40:32.303Z,14.30
2017-09-17T13:43:00.536Z,14.20
2017-09-17T13:45:28.811Z,14.60
2017-09-17T13:47:56.298Z,14.60
2017-09-17T13:50:24.570Z,14.90
2017-09-17T13:52:53.395Z,15.10
2017-09-17T13:55:20.879Z,15.10
2017-09-17T13:57:48.382Z,15.20
2017-09-17T14:00:17.213Z,14.70
2017-09-17T14:02:44.718Z,14.70
2017-09-17T14:05:13.732Z,14.50
2017-09-17T14:07:47.847Z,14.20
2017-09-17T14:10:19.777Z,14.20
2017-09-17T14:12:47.329Z,14.10
2017-09-17T14:15:14.839Z,14.00
2017-09-17T14:17:43.067Z,13.70
2017-09-17T14:20:10.579Z,13.70
2017-09-17T14:22:38.806Z,13.70
2017-09-17T14:25:06.329Z,13.70
2017-09-17T14:27:33.830Z,13.70
2017-09-17T14:30:01.318Z,13.70
2017-09-17T14:32:29.574Z,13.70
2017-09-17T14:34:57.823Z,13.80
2017-09-17T14:37:25.333Z,13.80
2017-09-17T14:39:53.551Z,13.80
2017-09-17T14:42:21.095Z,13.80
2017-09-17T14:44:48.577Z,13.80
2017-09-17T14:47:16.082Z,13.60
2017-09-17T14:49:44.339Z,13.50
2017-09-17T14:52:11.867Z,13.50
2017-09-17T14:54:39.484Z,13.80
2017-09-17T14:57:06.958Z,14.00
2017-09-17T14:59:34.662Z,13.70
2017-09-17T15:02:02.148Z,13.40
2017-09-17T15:04:31.147Z,13.20
2017-09-17T15:06:59.396Z,13.10
2017-09-17T15:09:26.926Z,13.10
2017-09-17T15:11:54.387Z,13.10
2017-09-17T15:14:21.909Z,13.00
2017-09-17T15:16:50.164Z,12.90
2017-09-17T15:19:17.675Z,12.80
2017-09-17T15:21:45.207Z,12.80
2017-09-17T15:24:13.508Z,12.70
2017-09-17T15:26:41.080Z,12.70
2017-09-17T15:29:08.571Z,12.70
2017-09-17T15:31:36.091Z,12.60
2017-09-17T15:34:03.583Z,12.60
2017-09-17T15:36:31.054Z,12.60
2017-09-17T15:38:58.562Z,12.60
2017-09-17T15:41:26.034Z,12.60
2017-09-17T15:43:53.498Z,12.60
2017-09-17T15:46:20.999Z,12.20
2017-09-17T15:48:49.358Z,12.10
2017-09-17T15:51:16.855Z,11.90
2017-09-17T15:53:44.330Z,11.90
2017-09-17T15:56:12.619Z,11.70
2017-09-17T15:58:40.083Z,11.60
2017-09-17T16:01:07.595Z,11.50
2017-09-17T16:03:35.868Z,11.40
2017-09-17T16:06:04.148Z,11.40
2017-09-17T16:08:32.469Z,11.30
2017-09-17T16:10:59.919Z,11.30
2017-09-17T16:13:27.413Z,11.40
2017-09-17T16:15:54.916Z,11.40
2017-09-17T16:18:23.173Z,11.20
2017-09-17T16:20:50.667Z,11.20
2017-09-17T16:23:18.147Z,11.10
2017-09-17T16:25:45.635Z,11.10
2017-09-17T16:28:13.098Z,11.00
2017-09-17T16:30:40.604Z,10.90
2017-09-17T16:33:08.070Z,11.00
2017-09-17T16:35:35.590Z,11.00
2017-09-17T16:38:03.835Z,11.10
2017-09-17T16:40:31.324Z,11.00
2017-09-17T16:42:59.578Z,11.20
2017-09-17T16:45:27.044Z,11.20
2017-09-17T16:47:56.070Z,11.00
2017-09-17T16:50:24.359Z,10.90
2017-09-17T16:52:51.879Z,10.90
2017-09-17T16:55:19.339Z,10.80
2017-09-17T16:57:47.612Z,10.80
2017-09-17T17:00:15.108Z,10.70
2017-09-17T17:02:42.601Z,10.80
2017-09-17T17:05:10.103Z,10.90
2017-09-17T17:07:39.094Z,10.90
2017-09-17T17:10:07.343Z,10.60
2017-09-17T17:12:34.819Z,10.60
2017-09-17T17:15:02.340Z,10.50
2017-09-17T17:17:29.819Z,10.20
2017-09-17T17:19:58.075Z,10.20
2017-09-17T17:22:25.589Z,10.40
2017-09-17T17:24:53.815Z,10.10
2017-09-17T17:27:21.341Z,10.10
2017-09-17T17:29:48.797Z,10.20
2017-09-17T17:32:16.322Z,10.30
2017-09-17T17:34:43.796Z,10.20
2017-09-17T17:37:12.066Z,10.10
2017-09-17T17:39:39.551Z,10.00
2017-09-17T17:42:07.083Z,10.00
2017-09-17T17:44:35.324Z,9.80
2017-09-17T17:47:02.798Z,9.80
2017-09-17T17:49:30.294Z,9.80
2017-09-17T17:51:58.550Z,9.90
2017-09-17T17:54:26.043Z,9.90
2017-09-17T17:56:53.544Z,9.90
2017-09-17T17:59:21.035Z,10.00
2017-09-17T18:01:49.272Z,10.10
2017-09-17T18:04:16.792Z,10.00
2017-09-17T18:06:44.295Z,10.10
2017-09-17T18:09:11.791Z,10.00
2017-09-17T18:11:40.059Z,9.80
2017-09-17T18:17:20.503Z,9.70
2017-09-17T18:19:47.957Z,9.80
2017-09-17T18:22:15.476Z,9.80
2017-09-17T18:24:43.708Z,9.40
2017-09-17T18:27:11.180Z,9.40
2017-09-17T18:29:38.692Z,9.50
2017-09-17T18:32:06.194Z,9.60
2017-09-17T18:34:33.883Z,9.70
2017-09-17T18:37:01.364Z,9.70
2017-09-17T18:39:28.847Z,9.60
2017-09-17T18:41:56.344Z,9.50
2017-09-17T18:44:23.952Z,9.60
2017-09-17T18:46:51.443Z,9.60
2017-09-17T18:49:18.934Z,9.60
2017-09-17T18:51:47.203Z,9.40
2017-09-17T18:54:14.683Z,9.30
2017-09-17T18:56:42.194Z,9.10
2017-09-17T18:59:09.665Z,9.10
2017-09-17T19:01:37.165Z,9.00
2017-09-17T19:04:04.653Z,9.00
2017-09-17T19:06:32.133Z,9.00
2017-09-17T19:08:59.639Z,9.10
2017-09-17T19:11:27.115Z,9.20
2017-09-17T19:13:54.573Z,9.30
2017-09-17T19:16:22.087Z,9.30
2017-09-17T19:18:49.568Z,9.40
2017-09-17T19:21:17.828Z,9.40
2017-09-17T19:23:45.325Z,9.30
2017-09-17T19:26:12.799Z,9.00
2017-09-17T19:28:40.308Z,8.80
2017-09-17T19:31:08.590Z,8.60
2017-09-17T19:33:36.845Z,8.60
2017-09-17T19:36:04.356Z,8.50
2017-09-17T19:38:31.831Z,8.50
2017-09-17T19:40:59.354Z,8.60
2017-09-17T19:43:26.807Z,8.70
2017-09-17T19:45:54.326Z,9.00
2017-09-17T19:48:21.799Z,9.00
2017-09-17T19:50:50.088Z,9.20
2017-09-17T19:53:18.334Z,9.30
2017-09-17T19:55:45.802Z,9.20
2017-09-17T19:58:13.295Z,9.20
2017-09-17T20:00:40.832Z,9.20
2017-09-17T20:03:08.331Z,9.30
2017-09-17T20:05:35.843Z,9.30
2017-09-17T20:08:03.358Z,9.40
2017-09-17T20:10:30.827Z,9.40
2017-09-17T20:12:58.332Z,9.30
2017-09-17T20:15:26.556Z,9.10
2017-09-17T20:17:54.099Z,9.10
2017-09-17T20:20:21.581Z,9.10
2017-09-17T20:22:49.026Z,8.90
2017-09-17T20:25:16.532Z,9.00
2017-09-17T20:27:43.991Z,9.00
2017-09-17T20:30:11.499Z,9.00
2017-09-17T20:32:39.008Z,8.90
2017-09-17T20:35:06.512Z,8.90
2017-09-17T20:37:34.010Z,8.60
2017-09-17T20:40:01.499Z,8.80
2017-09-17T20:42:29.760Z,8.90
2017-09-17T20:44:57.276Z,8.90
2017-09-17T20:47:24.796Z,9.00
2017-09-17T20:49:53.042Z,9.00
2017-09-17T20:52:20.507Z,9.10
2017-09-17T20:54:48.019Z,9.00
2017-09-17T20:57:15.552Z,9.10
2017-09-17T20:59:43.800Z,9.20
2017-09-17T21:02:11.271Z,9.10
2017-09-17T21:04:38.763Z,9.20
2017-09-17T21:07:06.234Z,9.00
2017-09-17T21:09:33.726Z,9.00
2017-09-17T21:12:01.194Z,8.90
2017-09-17T21:14:28.666Z,9.00
2017-09-17T21:16:56.923Z,9.10
2017-09-17T21:19:24.383Z,9.10
2017-09-17T21:21:51.887Z,8.90
2017-09-17T21:24:19.377Z,8.90
2017-09-17T21:26:46.861Z,8.90
2017-09-17T21:29:14.331Z,9.00
2017-09-17T21:31:41.842Z,9.00
2017-09-17T21:34:09.356Z,9.00
2017-09-17T21:36:37.575Z,8.90
2017-09-17T21:39:05.091Z,8.80
2017-09-17T21:41:33.403Z,8.80
2017-09-17T21:44:00.869Z,8.80
2017-09-17T21:46:28.362Z,8.90
2017-09-17T21:48:55.844Z,9.00
2017-09-17T21:51:23.328Z,8.70
2017-09-17T21:53:50.819Z,8.70
2017-09-17T21:56:18.323Z,8.80
2017-09-17T21:58:46.546Z,8.80
2017-09-17T22:01:14.012Z,8.80
2017-09-17T22:03:41.537Z,8.80
2017-09-17T22:06:08.999Z,8.90
2017-09-17T22:08:36.472Z,9.00
2017-09-17T22:11:03.988Z,8.80
2017-09-17T22:13:32.248Z,8.90
2017-09-17T22:15:59.728Z,8.90
2017-09-17T22:18:28.720Z,8.90
2017-09-17T22:20:56.959Z,8.90
2017-09-17T22:23:24.439Z,8.90
2017-09-17T22:25:51.960Z,9.00
2017-09-17T22:28:19.435Z,9.00
2017-09-17T22:30:46.898Z,9.00
2017-09-17T22:33:14.419Z,9.10
2017-09-17T22:35:41.871Z,9.10
2017-09-17T22:38:09.368Z,9.10
2017-09-17T22:40:36.834Z,9.20
2017-09-17T22:43:04.351Z,9.20
2017-09-17T22:45:31.818Z,9.10
2017-09-17T22:47:59.340Z,9.00
2017-09-17T22:50:27.591Z,9.00
2017-09-17T22:52:55.083Z,9.00
2017-09-17T22:55:22.575Z,9.00
2017-09-17T22:57:50.046Z,8.90
2017-09-17T23:00:17.536Z,8.80
2017-09-17T23:02:45.001Z,9.00
2017-09-17T23:05:12.488Z,8.90
2017-09-17T23:07:39.960Z,8.90
2017-09-17T23:10:07.461Z,9.00
2017-09-17T23:12:34.923Z,8.90
2017-09-17T23:15:02.412Z,8.80
2017-09-17T23:17:30.660Z,9.00
2017-09-17T23:19:58.133Z,9.00
2017-09-17T23:22:26.414Z,8.90
2017-09-17T23:24:54.679Z,8.90
2017-09-17T23:27:22.201Z,8.90
2017-09-17T23:29:49.655Z,8.80
2017-09-17T23:32:17.166Z,8.80
2017-09-17T23:34:45.399Z,8.90
2017-09-17T23:37:12.863Z,8.80
2017-09-17T23:39:40.363Z,8.90
2017-09-17T23:42:08.599Z,8.90
2017-09-17T23:44:36.100Z,8.90
2017-09-17T23:47:04.350Z,8.90
2017-09-17T23:49:31.860Z,8.90
2017-09-17T23:51:59.315Z,8.90
2017-09-17T23:54:26.859Z,8.90
2017-09-17T23:56:55.095Z,8.90
2017-09-17T23:59:22.570Z,8.90
